Time;durP1;ratioP1;P1;durP2;ratioP2;P2;SDS_P1;SDS_P2;PMS_P1;PMS_P2;Temp;Humidity;BMP_temperature;BMP_pressure;BME280_temperature;BME280_humidity;BME280_pressure;Samples;Min_cycle;Max_cycle;Signal;HPM_P1;HPM_P2
2023/08/10 00:00:32;;;;;;;5.85;2.00;;;;;;;10.85;90.55;101850.25;4908448;29;20074;-78
2023/08/10 00:02:57;;;;;;;7.45;1.67;;;;;;;10.79;90.16;101854.69;4907163;29;20040;-78
2023/08/10 00:05:22;;;;;;;5.70;1.60;;;;;;;10.77;90.18;101858.66;4908393;29;20075;-77
2023/08/10 00:07:48;;;;;;;2.47;1.50;;;;;;;10.79;90.18;101859.25;4902889;29;20032;-79
2023/08/10 00:10:14;;;;;;;;;;;;;;;10.78;90.75;101866.47;4900900;29;20044;-78
2023/08/10 00:12:40;;;;;;;5.43;1.40;;;;;;;10.74;90.03;101869.88;4904295;29;19923;-78
2023/08/10 00:15:05;;;;;;;;;;;;;;;10.74;90.63;101864.53;4903663;29;20044;-78
2023/08/10 00:17:32;;;;;;;3.80;1.88;;;;;;;10.71;90.67;101865.03;4903720;29;19922;-76
2023/08/10 00:19:57;;;;;;;;;;;;;;;10.71;91.05;101868.50;4903211;29;20040;-77
2023/08/10 00:22:23;;;;;;;4.47;1.27;;;;;;;10.72;90.96;101877.34;4880486;29;19970;-77
2023/08/10 00:24:49;;;;;;;3.95;1.70;;;;;;;10.73;91.44;101871.75;4876391;29;20130;-78
2023/08/10 00:27:15;;;;;;;3.80;1.75;;;;;;;10.76;91.37;101873.13;4918664;29;20127;-79
2023/08/10 00:29:40;;;;;;;4.07;1.95;;;;;;;10.77;91.37;101866.69;4905345;29;20048;-78
2023/08/10 00:32:06;;;;;;;7.40;1.67;;;;;;;10.78;91.37;101868.34;4905510;29;20039;-77
2023/08/10 00:34:32;;;;;;;2.50;1.73;;;;;;;10.79;91.12;101872.66;4906526;29;20186;-78
2023/08/10 00:36:58;;;;;;;2.67;1.83;;;;;;;10.78;91.06;101873.72;4905061;29;20479;-79
2023/08/10 00:39:24;;;;;;;4.32;1.80;;;;;;;10.78;91.35;101868.34;4905446;29;20036;-81
2023/08/10 00:41:50;;;;;;;4.18;1.70;;;;;;;10.77;91.62;101869.38;4908113;29;20069;-79
2023/08/10 00:44:17;;;;;;;3.17;1.90;;;;;;;10.77;91.19;101875.56;4889470;29;20676;-78
2023/08/10 00:46:43;;;;;;;3.50;1.80;;;;;;;10.78;91.14;101879.06;4885410;29;20517;-81
2023/08/10 00:49:09;;;;;;;5.65;2.03;;;;;;;10.77;91.09;101872.91;4900433;29;20040;-78
2023/08/10 00:51:35;;;;;;;4.60;2.22;;;;;;;10.76;91.59;101870.44;4896995;29;20079;-79
2023/08/10 00:54:03;;;;;;;3.50;2.05;;;;;;;10.74;91.86;101867.19;4895330;29;20045;-79
2023/08/10 00:56:29;;;;;;;7.10;2.08;;;;;;;10.71;91.95;101865.03;4876722;29;20044;-75
2023/08/10 00:58:56;;;;;;;4.15;1.70;;;;;;;10.68;91.36;101876.19;4896227;29;20040;-79
2023/08/10 01:01:22;;;;;;;6.07;1.92;;;;;;;10.64;91.66;101870.53;4904242;29;20048;-80
2023/08/10 01:03:47;;;;;;;4.05;2.30;;;;;;;10.62;91.33;101872.63;4883629;29;20102;-79
2023/08/10 01:06:25;;;;;;;5.30;2.00;;;;;;;10.59;91.34;101870.44;4885765;29;20043;-78
2023/08/10 01:08:54;;;;;;;5.63;1.92;;;;;;;10.57;91.28;101876.03;4894986;29;20084;-80
2023/08/10 01:11:26;;;;;;;4.13;2.03;;;;;;;10.55;91.24;101875.44;4902985;29;20099;-78
2023/08/10 01:14:07;;;;;;;3.25;1.85;;;;;;;10.55;91.13;101880.81;4888051;29;20059;-79
2023/08/10 01:16:37;;;;;;;4.63;1.92;;;;;;;10.53;91.67;101882.94;4887103;29;20040;-77
2023/08/10 01:19:07;;;;;;;3.42;1.42;;;;;;;10.56;91.71;101885.09;4870292;29;20044;-76
2023/08/10 01:21:43;;;;;;;2.90;1.90;;;;;;;10.52;92.16;101878.63;4885947;29;20047;-80
2023/08/10 01:24:19;;;;;;;5.93;2.28;;;;;;;10.58;92.43;101887.56;4899617;29;20051;-78
2023/08/10 01:26:46;;;;;;;5.90;2.67;;;;;;;10.57;92.12;101891.31;4886143;29;20048;-77
2023/08/10 01:29:12;;;;;;;3.72;1.70;;;;;;;10.56;92.12;101887.78;4887642;29;20050;-77
2023/08/10 01:31:39;;;;;;;4.47;2.00;;;;;;;10.57;92.01;101899.34;4898938;29;20055;-80
2023/08/10 01:34:05;;;;;;;3.80;1.90;;;;;;;10.56;91.64;101893.13;4901103;29;20067;-79
2023/08/10 01:36:32;;;;;;;5.28;2.10;;;;;;;10.57;92.23;101894.78;4889375;29;20035;-77
2023/08/10 01:38:58;;;;;;;3.55;1.85;;;;;;;10.57;92.66;101889.44;4856392;29;20048;-78
2023/08/10 01:41:24;;;;;;;6.10;2.00;;;;;;;10.58;92.90;101898.28;4920158;29;20036;-78
2023/08/10 01:43:50;;;;;;;4.97;2.00;;;;;;;10.58;92.75;101896.41;4888362;29;20084;-81
2023/08/10 01:46:19;;;;;;;4.72;1.73;;;;;;;10.56;92.52;101895.81;4899097;29;20051;-77
2023/08/10 01:48:48;;;;;;;4.78;2.20;;;;;;;10.56;92.30;101893.13;4897689;29;20043;-80
2023/08/10 01:51:19;;;;;;;7.75;1.70;;;;;;;10.55;92.21;101898.75;4900809;29;20040;-79
2023/08/10 01:53:47;;;;;;;6.05;1.90;;;;;;;10.54;92.54;101892.59;4905888;29;20040;-80
2023/08/10 01:56:13;;;;;;;5.03;1.75;;;;;;;10.52;92.20;101894.69;4888424;29;20032;-79
2023/08/10 01:58:40;;;;;;;4.78;2.00;;;;;;;10.55;92.13;101894.19;4889201;29;20070;-80
2023/08/10 02:01:06;;;;;;;2.88;1.63;;;;;;;10.58;92.22;101892.94;4874035;29;20103;-78
2023/08/10 02:03:31;;;;;;;3.40;1.60;;;;;;;10.59;92.32;101895.34;4900609;29;20052;-80
2023/08/10 02:05:58;;;;;;;4.90;2.05;;;;;;;10.59;93.17;101895.34;4900809;29;20039;-77
2023/08/10 02:08:24;;;;;;;4.07;1.90;;;;;;;10.62;92.47;101894.06;4903197;29;20044;-78
2023/08/10 02:10:50;;;;;;;3.53;1.67;;;;;;;10.62;92.76;101886.81;4904640;29;20040;-77
2023/08/10 02:13:16;;;;;;;5.40;1.70;;;;;;;10.64;93.18;101897.31;4875695;29;20044;-78
2023/08/10 02:15:42;;;;;;;4.82;2.05;;;;;;;10.66;93.49;101890.66;4871535;29;20039;-79
2023/08/10 02:18:11;;;;;;;3.80;1.83;;;;;;;10.69;93.11;101883.19;4899088;29;20654;-79
2023/08/10 02:20:36;;;;;;;3.60;1.80;;;;;;;10.71;93.01;101891.81;4899072;29;20139;-76
2023/08/10 02:23:03;;;;;;;3.78;1.70;;;;;;;10.72;93.00;101898.78;4883904;29;20070;-77
2023/08/10 02:25:28;;;;;;;5.53;1.60;;;;;;;10.71;93.08;101897.16;4916571;29;20095;-79
2023/08/10 02:27:55;;;;;;;3.65;1.75;;;;;;;10.71;93.04;101899.84;4901251;29;20040;-78
2023/08/10 02:30:22;;;;;;;3.65;2.20;;;;;;;10.70;92.97;101908.91;4886029;29;20051;-78
2023/08/10 02:32:48;;;;;;;4.38;1.92;;;;;;;10.66;93.32;101901.38;4900950;29;20127;-79
2023/08/10 02:35:14;;;;;;;5.25;1.58;;;;;;;10.67;93.44;101907.53;4906390;29;20046;-79
2023/08/10 02:37:39;;;;;;;;;;;;;;;10.65;93.14;101898.94;4895810;29;20083;-79
2023/08/10 02:40:13;;;;;;;4.63;1.25;;;;;;;10.59;92.85;101890.00;4892643;29;19922;-79
2023/08/10 02:42:39;;;;;;;3.13;1.38;;;;;;;10.58;92.68;101891.06;4904411;29;20047;-81
2023/08/10 02:45:07;;;;;;;3.95;1.38;;;;;;;10.56;92.40;101890.47;4881406;29;20044;-79
2023/08/10 02:47:34;;;;;;;2.22;1.30;;;;;;;10.56;92.30;101885.09;4898762;29;20514;-79
2023/08/10 02:50:01;;;;;;;4.38;1.80;;;;;;;10.51;92.51;101895.75;4893843;29;20051;-77
2023/08/10 02:52:27;;;;;;;4.80;1.60;;;;;;;10.47;92.20;101891.91;4909335;29;20050;-77
2023/08/10 02:54:53;;;;;;;4.68;1.73;;;;;;;10.46;92.64;101906.38;4911077;29;20039;-78
2023/08/10 02:57:18;;;;;;;3.33;1.40;;;;;;;10.45;92.01;101904.75;4910020;29;20039;-79
2023/08/10 02:59:44;;;;;;;4.57;2.05;;;;;;;10.42;92.27;101910.56;4907039;29;20095;-80
2023/08/10 03:02:10;;;;;;;6.25;1.90;;;;;;;10.36;92.22;101906.16;4906438;29;20040;-78
2023/08/10 03:04:36;;;;;;;6.07;1.80;;;;;;;10.34;92.19;101908.28;4907130;29;20079;-77
2023/08/10 03:07:01;;;;;;;;;;;;;;;10.30;91.92;101912.50;4895281;29;20032;-77
2023/08/10 03:09:27;;;;;;;6.57;1.75;;;;;;;10.28;91.90;101910.03;4924504;29;19927;-77
2023/08/10 03:11:53;;;;;;;3.55;1.88;;;;;;;10.27;92.11;101907.59;4907963;29;20500;-77
2023/08/10 03:14:19;;;;;;;5.63;1.60;;;;;;;10.24;91.97;101908.91;4892254;29;20032;-78
2023/08/10 03:16:45;;;;;;;4.03;1.90;;;;;;;10.22;91.99;101904.78;4897022;29;20032;-79
2023/08/10 03:19:10;;;;;;;4.13;1.50;;;;;;;10.21;92.10;101904.00;4926128;29;20826;-78
2023/08/10 03:21:37;;;;;;;3.13;1.55;;;;;;;10.19;92.06;101910.66;4909286;29;20136;-77
2023/08/10 03:24:03;;;;;;;3.08;1.25;;;;;;;10.17;92.12;101915.44;4896933;29;20119;-78
2023/08/10 03:26:28;;;;;;;;;;;;;;;10.16;91.97;101911.09;4909046;29;20527;-80
2023/08/10 03:28:55;;;;;;;5.40;1.80;;;;;;;10.12;92.14;101913.47;4893913;29;19927;-78
2023/08/10 03:31:23;;;;;;;6.20;1.70;;;;;;;10.08;91.84;101915.78;4907116;29;20609;-77
2023/08/10 03:33:50;;;;;;;3.97;1.50;;;;;;;10.07;92.00;101916.84;4907724;29;20604;-79
2023/08/10 03:36:19;;;;;;;6.70;1.55;;;;;;;10.02;91.98;101916.72;4889922;29;20032;-77
2023/08/10 03:38:44;;;;;;;4.07;1.70;;;;;;;10.00;92.04;101912.69;4883101;29;20044;-81
2023/08/10 03:41:10;;;;;;;2.78;1.70;;;;;;;9.96;92.12;101915.03;4904856;29;20040;-77
2023/08/10 03:43:35;;;;;;;4.97;1.58;;;;;;;9.94;92.28;101919.78;4911425;29;20036;-78
2023/08/10 03:46:02;;;;;;;3.97;1.55;;;;;;;9.92;92.05;101915.72;4888237;29;20037;-76
2023/08/10 03:48:28;;;;;;;4.55;1.45;;;;;;;9.90;92.31;101924.00;4924358;29;20048;-78
2023/08/10 03:50:54;;;;;;;4.28;2.00;;;;;;;9.86;91.93;101917.47;4906760;29;20036;-80
2023/08/10 03:53:20;;;;;;;4.32;1.42;;;;;;;9.87;91.67;101919.09;4908131;29;20497;-79
2023/08/10 03:55:46;;;;;;;6.65;1.65;;;;;;;9.89;92.54;101922.38;4921193;29;20052;-78
2023/08/10 03:58:13;;;;;;;6.95;1.90;;;;;;;9.88;92.71;101920.72;4906866;29;20081;-78
2023/08/10 04:00:44;;;;;;;4.57;1.60;;;;;;;9.89;92.24;101924.22;4894688;29;20036;-76
2023/08/10 04:03:12;;;;;;;5.15;1.63;;;;;;;9.91;92.31;101925.63;4891264;29;20043;-79
2023/08/10 04:05:39;;;;;;;2.35;1.20;;;;;;;9.95;93.01;101925.94;4907872;29;20063;-80
2023/08/10 04:08:07;;;;;;;3.40;1.92;;;;;;;9.97;93.22;101923.88;4904293;29;20038;-78
2023/08/10 04:10:32;;;;;;;4.10;1.30;;;;;;;9.97;93.26;101923.88;4907540;29;20068;-81
2023/08/10 04:12:58;;;;;;;3.03;1.63;;;;;;;9.96;93.52;101915.03;4889136;29;20040;-82
2023/08/10 04:15:25;;;;;;;2.63;1.50;;;;;;;9.95;93.37;101925.94;4908151;29;20065;-78
2023/08/10 04:17:51;;;;;;;3.97;1.55;;;;;;;9.94;93.14;101917.09;4888276;29;20079;-79
2023/08/10 04:20:17;;;;;;;;;;;;;;;9.96;93.22;101919.56;4908424;29;20044;-79
2023/08/10 04:22:43;;;;;;;4.28;1.50;;;;;;;9.92;92.97;101916.53;4906339;29;19942;-80
2023/08/10 04:25:09;;;;;;;4.30;1.58;;;;;;;9.92;92.72;101916.53;4908550;29;20039;-79
2023/08/10 04:27:35;;;;;;;3.92;1.50;;;;;;;9.90;92.93;101924.00;4907978;29;20777;-80
2023/08/10 04:30:02;;;;;;;4.18;1.52;;;;;;;9.89;92.78;101921.53;4907693;29;20050;-79
2023/08/10 04:32:29;;;;;;;4.05;1.60;;;;;;;9.87;92.66;101921.78;4920166;29;20416;-80
2023/08/10 04:34:55;;;;;;;3.58;1.70;;;;;;;9.87;92.40;101927.13;4906625;29;20627;-79
2023/08/10 04:37:20;;;;;;;4.22;1.42;;;;;;;9.86;92.32;101925.50;4873184;29;20071;-79
2023/08/10 04:39:46;;;;;;;3.50;1.60;;;;;;;9.86;92.44;101933.53;4913444;29;20043;-80
2023/08/10 04:42:14;;;;;;;3.50;1.60;;;;;;;9.85;92.41;101937.25;4905482;29;20032;-81
2023/08/10 04:44:39;;;;;;;3.10;1.30;;;;;;;9.82;92.42;101933.19;4908025;29;20151;-77
2023/08/10 04:47:05;;;;;;;4.00;1.38;;;;;;;9.83;92.89;101940.19;4891398;29;20031;-80
2023/08/10 04:49:31;;;;;;;4.82;1.35;;;;;;;9.81;92.86;101936.91;4905641;29;20048;-78
2023/08/10 04:51:57;;;;;;;;;;;;;;;9.83;93.10;101939.38;4903686;29;20033;-80
2023/08/10 04:54:22;;;;;;;4.10;1.30;;;;;;;9.82;93.50;101932.34;4891993;29;20405;-79
2023/08/10 04:56:50;;;;;;;4.65;1.45;;;;;;;9.84;93.84;101939.13;4904386;29;20036;-78
2023/08/10 04:59:16;;;;;;;4.03;1.67;;;;;;;9.87;93.67;101945.03;4919052;28;20064;-81
2023/08/10 05:01:41;;;;;;;2.72;1.23;;;;;;;9.87;93.33;101943.19;4922258;29;20036;-81
2023/08/10 05:04:07;;;;;;;4.68;1.67;;;;;;;9.89;93.73;101942.94;4906318;29;20035;-79
2023/08/10 05:06:34;;;;;;;6.55;1.90;;;;;;;9.92;93.72;101953.19;4888677;29;20048;-82
2023/08/10 05:09:01;;;;;;;4.38;1.58;;;;;;;9.93;93.66;101955.63;4897322;29;20044;-80
2023/08/10 05:11:28;;;;;;;3.72;1.55;;;;;;;9.95;93.58;101952.69;4908105;29;20036;-82
2023/08/10 05:13:54;;;;;;;4.22;1.90;;;;;;;9.96;94.34;101949.81;4906200;29;20043;-77
2023/08/10 05:16:21;;;;;;;6.82;1.95;;;;;;;9.97;93.92;101948.75;4906232;29;20043;-79
2023/08/10 05:18:46;;;;;;;6.60;1.92;;;;;;;9.98;94.06;101950.38;4922476;29;20135;-80
2023/08/10 05:21:12;;;;;;;3.05;1.67;;;;;;;10.02;93.97;101962.22;4916044;29;20036;-79
2023/08/10 05:23:38;;;;;;;3.90;1.70;;;;;;;10.05;94.18;101955.59;4912534;29;20046;-81
2023/08/10 05:26:04;;;;;;;5.25;1.80;;;;;;;10.09;93.93;101957.59;4872331;29;20036;-79
2023/08/10 05:28:30;;;;;;;4.68;1.70;;;;;;;10.15;94.02;101963.84;4900883;29;20055;-80
2023/08/10 05:30:55;;;;;;;6.75;2.28;;;;;;;10.20;94.21;101969.28;4889212;29;20449;-79
2023/08/10 05:33:21;;;;;;;8.68;2.10;;;;;;;10.31;94.71;101967.69;4889212;29;20466;-79
2023/08/10 05:35:47;;;;;;;;;;;;;;;10.39;94.81;101969.97;4891600;29;20032;-82
2023/08/10 05:38:13;;;;;;;7.38;2.20;;;;;;;10.46;95.08;101973.31;4905021;29;20834;-77
2023/08/10 05:40:38;;;;;;;6.25;1.90;;;;;;;10.54;94.87;101978.28;4909560;29;20044;-79
2023/08/10 05:43:04;;;;;;;5.93;2.15;;;;;;;10.62;94.72;101971.72;4901309;29;20048;-78
2023/08/10 05:45:31;;;;;;;4.95;1.60;;;;;;;10.72;94.77;101969.25;4922351;29;20075;-77
2023/08/10 05:47:56;;;;;;;5.47;2.05;;;;;;;10.79;94.78;101972.59;4886537;29;20036;-77
2023/08/10 05:50:23;;;;;;;4.30;1.90;;;;;;;10.91;95.15;101975.22;4905688;29;20044;-77
2023/08/10 05:52:49;;;;;;;7.32;2.08;;;;;;;10.99;94.96;101971.34;4902900;29;20116;-78
2023/08/10 05:55:15;;;;;;;4.70;1.70;;;;;;;11.11;95.21;101974.75;4893981;29;20048;-78
2023/08/10 05:57:44;;;;;;;5.25;2.10;;;;;;;11.15;95.39;101968.66;4883762;29;20047;-78
2023/08/10 06:00:12;;;;;;;4.78;1.80;;;;;;;11.25;96.04;101972.56;4897168;29;20044;-78
2023/08/10 06:02:38;;;;;;;4.28;1.80;;;;;;;11.32;95.76;101978.59;4907399;29;20043;-77
2023/08/10 06:05:06;;;;;;;3.67;2.00;;;;;;;11.38;96.30;101977.59;4903972;29;20039;-78
2023/08/10 06:07:33;;;;;;;6.80;2.30;;;;;;;11.41;96.69;101977.91;4904823;29;20806;-78
2023/08/10 06:09:58;;;;;;;5.57;1.80;;;;;;;11.47;96.88;101979.63;4906660;29;20527;-79
2023/08/10 06:12:24;;;;;;;11.48;2.03;;;;;;;11.70;96.21;101978.59;4889141;29;20132;-78
2023/08/10 06:14:50;;;;;;;6.30;1.65;;;;;;;11.82;96.38;101977.72;4880989;29;20135;-78
2023/08/10 06:17:16;;;;;;;7.22;2.10;;;;;;;11.94;96.88;101975.75;4907571;29;20048;-77
2023/08/10 06:19:51;;;;;;;7.35;2.05;;;;;;;12.06;96.80;101983.66;4904446;29;20044;-79
2023/08/10 06:22:17;;;;;;;6.00;1.88;;;;;;;12.21;93.24;101978.50;4923747;29;20100;-78
2023/08/10 06:24:43;;;;;;;6.53;1.50;;;;;;;12.35;93.77;101982.44;4882233;29;20032;-78
2023/08/10 06:27:09;;;;;;;4.35;1.73;;;;;;;12.47;94.79;101988.50;4909161;29;20067;-77
2023/08/10 06:29:35;;;;;;;4.18;1.52;;;;;;;12.58;93.57;101979.47;4910985;29;20967;-78
2023/08/10 06:32:05;;;;;;;10.25;2.75;;;;;;;12.72;93.21;101979.06;4921780;29;20056;-77
2023/08/10 06:34:31;;;;;;;4.97;2.10;;;;;;;12.85;93.38;101981.34;4928840;29;20044;-78
2023/08/10 06:36:57;;;;;;;6.60;1.77;;;;;;;12.94;90.48;101989.75;4909453;29;20508;-79
2023/08/10 06:39:24;;;;;;;5.38;1.73;;;;;;;13.06;90.86;101993.09;4899069;29;20581;-78
2023/08/10 06:41:49;;;;;;;;;;;;;;;13.22;91.22;101994.91;4927004;29;20056;-78
2023/08/10 06:44:20;;;;;;;9.05;2.00;;;;;;;13.35;90.70;101991.78;4893597;29;19915;-79
2023/08/10 06:46:45;;;;;;;8.32;2.28;;;;;;;13.50;90.43;101987.56;4898389;29;20032;-78
2023/08/10 06:49:11;;;;;;;4.35;1.50;;;;;;;13.64;90.71;101988.75;4909534;29;20326;-79
2023/08/10 06:51:37;;;;;;;5.82;1.70;;;;;;;13.77;88.29;101977.50;4913930;29;20047;-79
2023/08/10 06:54:02;;;;;;;;;;;;;;;13.91;84.13;101989.44;4910353;29;20115;-79
2023/08/10 06:56:29;;;;;;;6.30;1.60;;;;;;;14.00;86.98;101986.25;4912487;29;19930;-79
2023/08/10 06:58:55;;;;;;;5.93;1.52;;;;;;;14.07;87.58;101981.41;4898073;29;20032;-77
2023/08/10 07:01:20;;;;;;;6.22;1.50;;;;;;;14.14;86.80;101979.31;4909679;29;20036;-78
2023/08/10 07:03:46;;;;;;;5.95;2.00;;;;;;;14.29;85.55;101984.75;4911991;29;20048;-77
2023/08/10 07:06:12;;;;;;;;;;;;;;;14.44;84.11;101990.19;4908541;29;20035;-76
2023/08/10 07:08:38;;;;;;;7.97;1.80;;;;;;;14.62;83.74;101994.31;4895811;29;19922;-77
2023/08/10 07:11:03;;;;;;;;;;;;;;;14.68;81.46;101995.94;4880824;29;20056;-79
2023/08/10 07:13:29;;;;;;;5.72;1.48;;;;;;;14.72;77.85;101999.75;4911637;29;19915;-78
2023/08/10 07:15:55;;;;;;;6.32;1.88;;;;;;;14.91;78.17;101996.53;4877224;29;20044;-79
2023/08/10 07:18:22;;;;;;;;;;;;;;;15.00;83.85;102006.53;4923385;29;20039;-76
2023/08/10 07:20:48;;;;;;;5.57;1.27;;;;;;;15.06;80.73;101995.75;4920752;29;20017;-78
2023/08/10 07:23:17;;;;;;;;;;;;;;;15.08;76.74;102002.47;4896497;29;20135;-75
2023/08/10 07:25:45;;;;;;;7.78;1.50;;;;;;;15.20;77.84;101988.72;4899752;29;19915;-76
2023/08/10 07:28:11;;;;;;;4.20;1.65;;;;;;;15.29;82.93;101998.69;4917138;29;20044;-77
2023/08/10 07:30:36;;;;;;;;;;;;;;;15.33;81.13;102004.38;4894412;29;20517;-77
2023/08/10 07:33:03;;;;;;;5.70;1.60;;;;;;;15.40;80.13;102001.41;4908515;29;19974;-76
2023/08/10 07:35:29;;;;;;;4.57;1.63;;;;;;;15.48;82.57;101996.25;4895938;29;20052;-77
2023/08/10 07:37:55;;;;;;;;;;;;;;;15.55;78.07;102001.38;4911199;29;20044;-75
2023/08/10 07:40:20;;;;;;;6.05;1.30;;;;;;;15.61;77.01;102010.28;4921910;29;19922;-76
2023/08/10 07:42:46;;;;;;;;;;;;;;;15.68;73.61;102010.84;4926205;29;20039;-76
2023/08/10 07:45:12;;;;;;;7.28;1.88;;;;;;;15.72;72.68;102003.84;4904258;29;19951;-77
2023/08/10 07:47:38;;;;;;;5.93;1.23;;;;;;;15.79;73.91;102001.66;4904703;29;20046;-77
2023/08/10 07:50:05;;;;;;;;;;;;;;;15.92;76.12;102009.19;4923168;29;20036;-78
2023/08/10 07:52:31;;;;;;;4.80;0.90;;;;;;;15.96;73.00;102004.84;4887703;29;19926;-78
2023/08/10 07:54:57;;;;;;;10.63;2.00;;;;;;;15.97;71.07;102003.75;4891884;29;20040;-79
2023/08/10 07:57:22;;;;;;;;;;;;;;;16.07;74.07;102006.44;4919301;29;20031;-78
2023/08/10 07:59:48;;;;;;;3.35;1.20;;;;;;;16.17;74.68;102004.75;4906420;29;19931;-77
2023/08/10 08:02:14;;;;;;;;;;;;;;;16.30;71.06;102020.38;4891625;29;20895;-77
2023/08/10 08:04:40;;;;;;;4.78;1.17;;;;;;;16.38;73.32;102015.19;4895702;29;21139;-78
2023/08/10 08:07:05;;;;;;;6.35;1.50;;;;;;;16.47;69.71;102006.53;4921875;29;20503;-77
2023/08/10 08:09:32;;;;;;;4.82;1.00;;;;;;;16.54;69.67;102007.84;4906078;29;20564;-77
2023/08/10 08:11:57;;;;;;;4.05;1.20;;;;;;;16.64;71.51;102002.34;4893798;29;20159;-76
2023/08/10 08:14:23;;;;;;;9.98;1.65;;;;;;;16.67;68.91;102011.03;4887381;29;20040;-77
2023/08/10 08:16:49;;;;;;;6.65;1.50;;;;;;;16.71;66.43;102014.81;4908998;29;20490;-77
2023/08/10 08:19:15;;;;;;;5.55;1.58;;;;;;;16.75;67.33;102008.56;4906021;29;20741;-78
2023/08/10 08:21:41;;;;;;;8.25;1.88;;;;;;;16.81;65.36;102007.44;4879381;29;20691;-76
2023/08/10 08:24:06;;;;;;;6.10;1.50;;;;;;;16.88;67.70;102015.25;4888402;29;20376;-76
2023/08/10 08:26:33;;;;;;;6.68;1.40;;;;;;;16.98;67.54;102014.34;4906499;29;20066;-78
2023/08/10 08:28:59;;;;;;;5.22;1.20;;;;;;;17.10;68.29;102012.09;4905841;29;20068;-77
2023/08/10 08:31:25;;;;;;;7.75;1.50;;;;;;;17.18;69.74;102012.31;4905953;29;20080;-76
2023/08/10 08:33:51;;;;;;;4.15;1.23;;;;;;;17.18;66.45;102011.50;4876189;29;20055;-76
2023/08/10 08:36:17;;;;;;;8.27;2.10;;;;;;;17.22;66.09;102012.56;4905771;29;20059;-77
2023/08/10 08:38:44;;;;;;;5.90;1.17;;;;;;;17.31;67.54;102004.63;4906098;29;20040;-78
2023/08/10 08:41:10;;;;;;;7.20;1.80;;;;;;;17.38;66.55;102016.75;4898008;29;20155;-78
2023/08/10 08:43:38;;;;;;;9.07;1.58;;;;;;;17.41;65.61;102020.78;4907719;29;20573;-75
2023/08/10 08:46:05;;;;;;;6.05;1.38;;;;;;;17.46;66.93;102018.03;4907238;29;20032;-78
2023/08/10 08:48:30;;;;;;;5.05;1.30;;;;;;;17.60;67.21;102020.88;4915382;29;20068;-77
2023/08/10 08:50:57;;;;;;;10.05;1.63;;;;;;;17.72;68.43;102016.72;4906611;29;20115;-78
2023/08/10 08:53:24;;;;;;;6.88;1.23;;;;;;;17.84;63.57;102016.34;4907592;29;20161;-79
2023/08/10 08:55:50;;;;;;;7.18;1.70;;;;;;;17.98;62.66;102030.00;4907459;29;20113;-78
2023/08/10 08:58:17;;;;;;;4.72;2.20;;;;;;;18.02;62.81;102020.22;4892277;29;20470;-79
2023/08/10 09:00:54;;;;;;;5.93;1.60;;;;;;;17.97;62.66;102026.50;4908153;29;20047;-77
2023/08/10 09:03:24;;;;;;;5.43;1.17;;;;;;;17.80;63.78;102030.72;4891465;29;20119;-79
2023/08/10 09:05:50;;;;;;;8.68;1.30;;;;;;;17.56;63.37;102033.38;4909111;29;20462;-78
2023/08/10 09:08:18;;;;;;;6.90;1.85;;;;;;;17.44;68.34;102025.63;4895367;29;20051;-80
2023/08/10 09:10:46;;;;;;;5.53;1.50;;;;;;;17.50;68.50;102023.69;4901944;29;20041;-76
2023/08/10 09:13:22;;;;;;;5.32;1.67;;;;;;;17.57;67.73;102033.09;4894187;29;20127;-77
2023/08/10 09:16:10;;;;;;;5.90;1.42;;;;;;;17.71;67.05;102030.56;4906640;29;20044;-76
2023/08/10 09:18:39;;;;;;;7.15;1.27;;;;;;;17.82;65.03;102025.84;4902083;29;20062;-77
2023/08/10 09:21:23;;;;;;;8.40;1.88;;;;;;;17.86;62.97;102024.97;4891815;29;20040;-78
2023/08/10 09:23:53;;;;;;;7.75;1.73;;;;;;;17.91;61.55;102019.50;4920987;29;20449;-77
2023/08/10 09:26:20;;;;;;;6.53;1.77;;;;;;;18.08;62.33;102013.59;4918222;29;20589;-78
2023/08/10 09:28:48;;;;;;;6.88;1.77;;;;;;;18.20;63.97;102011.28;4907788;29;20070;-78
2023/08/10 09:31:14;;;;;;;4.28;1.75;;;;;;;18.16;59.59;102017.59;4908711;29;20066;-78
2023/08/10 09:33:39;;;;;;;7.40;1.50;;;;;;;18.06;58.35;102012.28;4879923;29;20534;-77
2023/08/10 09:36:07;;;;;;;7.70;1.55;;;;;;;18.15;61.22;102014.06;4873400;29;20059;-77
2023/08/10 09:38:33;;;;;;;6.85;1.55;;;;;;;18.12;63.79;102014.66;4884092;29;20048;-77
2023/08/10 09:41:09;;;;;;;7.95;1.60;;;;;;;18.30;61.24;102004.97;4902655;29;20107;-77
2023/08/10 09:43:43;;;;;;;6.38;1.55;;;;;;;18.44;60.75;102010.47;4903507;29;20043;-77
2023/08/10 09:46:13;;;;;;;4.75;1.83;;;;;;;18.43;62.01;102014.28;4889014;29;20036;-77
2023/08/10 09:48:40;;;;;;;8.23;1.42;;;;;;;18.46;61.45;102019.13;4861373;29;20462;-77
2023/08/10 09:51:08;;;;;;;5.82;1.55;;;;;;;18.43;60.69;102015.09;4899998;29;20032;-76
2023/08/10 09:53:34;;;;;;;4.53;1.13;;;;;;;18.45;58.29;102012.06;4907561;29;20039;-77
2023/08/10 09:56:01;;;;;;;8.07;2.10;;;;;;;18.61;59.82;102018.91;4907592;29;20526;-77
2023/08/10 09:58:27;;;;;;;7.70;1.38;;;;;;;18.66;56.37;102013.44;4915558;29;20051;-75
2023/08/10 10:00:53;;;;;;;6.40;1.50;;;;;;;18.81;58.79;102020.56;4906171;29;20044;-77
2023/08/10 10:03:23;;;;;;;6.28;2.08;;;;;;;18.92;58.56;102019.31;4903263;29;20032;-76
2023/08/10 10:05:50;;;;;;;6.25;1.85;;;;;;;18.89;57.13;102021.78;4904317;29;20024;-77
2023/08/10 10:08:17;;;;;;;4.50;1.45;;;;;;;18.87;63.49;102019.38;4886556;29;20047;-76
2023/08/10 10:10:45;;;;;;;4.72;1.60;;;;;;;19.06;57.67;102019.38;4917362;29;20494;-77
2023/08/10 10:13:15;;;;;;;10.40;2.30;;;;;;;19.12;59.93;102020.91;4918550;29;20044;-76
2023/08/10 10:15:45;;;;;;;6.45;1.42;;;;;;;19.08;59.93;102019.88;4889060;29;20101;-78
2023/08/10 10:18:12;;;;;;;5.65;1.98;;;;;;;19.05;58.64;102015.03;4889077;29;20126;-79
2023/08/10 10:20:40;;;;;;;4.93;1.30;;;;;;;19.22;63.39;102020.72;4888212;29;20083;-74
2023/08/10 10:23:17;;;;;;;6.97;1.40;;;;;;;19.11;59.41;102016.56;4899234;29;20493;-76
2023/08/10 10:25:57;;;;;;;6.07;1.40;;;;;;;19.22;57.42;102015.28;4920698;29;20516;-77
2023/08/10 10:28:23;;;;;;;4.47;1.67;;;;;;;19.19;58.32;102010.47;4897440;29;20044;-77
2023/08/10 10:30:54;;;;;;;10.77;1.70;;;;;;;19.12;59.96;102010.03;4900848;29;20036;-74
2023/08/10 10:33:22;;;;;;;4.55;1.63;;;;;;;19.04;57.80;102013.44;4897506;29;20036;-77
2023/08/10 10:36:11;;;;;;;7.03;1.73;;;;;;;19.09;57.01;102005.19;4902653;29;20121;-74
2023/08/10 10:38:39;;;;;;;5.72;2.20;;;;;;;19.21;55.70;102007.44;4904787;29;20043;-80
2023/08/10 10:41:15;;;;;;;6.15;1.73;;;;;;;19.31;58.37;101999.13;4904987;29;20622;-75
2023/08/10 10:43:44;;;;;;;6.50;1.38;;;;;;;19.36;59.05;102007.97;4902776;29;20496;-79
2023/08/10 10:46:48;;;;;;;6.90;1.85;;;;;;;19.66;60.91;102010.50;4901708;29;20873;-78
2023/08/10 10:49:19;;;;;;;4.05;1.73;;;;;;;19.59;57.53;102010.91;4880704;29;20776;-75
2023/08/10 10:51:51;;;;;;;6.10;1.50;;;;;;;19.47;61.27;102015.97;4896362;29;20545;-74
2023/08/10 10:54:16;;;;;;;5.75;2.20;;;;;;;19.32;55.96;102012.41;4889223;29;20036;-77
2023/08/10 10:56:43;;;;;;;7.00;1.80;;;;;;;19.29;57.60;102015.72;4899691;29;20051;-76
2023/08/10 10:59:09;;;;;;;5.70;1.73;;;;;;;19.00;58.10;102010.50;4899587;29;20047;-76
2023/08/10 11:01:35;;;;;;;5.03;1.30;;;;;;;19.15;58.31;102014.06;4902673;29;20040;-78
2023/08/10 11:04:05;;;;;;;5.88;1.30;;;;;;;19.16;54.49;102004.81;4903522;29;20133;-76
2023/08/10 11:06:31;;;;;;;5.75;1.50;;;;;;;19.26;56.97;102005.44;4886530;29;20046;-78
2023/08/10 11:08:56;;;;;;;6.45;1.50;;;;;;;19.20;55.94;102001.22;4890435;29;20426;-76
2023/08/10 11:11:23;;;;;;;4.30;1.73;;;;;;;19.29;56.08;102004.84;4889203;29;20067;-77
2023/08/10 11:13:51;;;;;;;7.45;1.55;;;;;;;19.50;57.12;101999.06;4908503;29;20048;-74
2023/08/10 11:16:17;;;;;;;7.43;2.10;;;;;;;19.73;58.87;102009.00;4889758;29;20537;-77
2023/08/10 11:18:45;;;;;;;4.45;1.27;;;;;;;19.86;58.85;102002.78;4920427;29;20032;-77
2023/08/10 11:21:15;;;;;;;5.30;1.55;;;;;;;19.75;57.12;102008.69;4887235;29;20044;-76
2023/08/10 11:23:41;;;;;;;4.70;1.95;;;;;;;19.81;56.38;102002.84;4905304;29;20032;-76
2023/08/10 11:26:08;;;;;;;5.97;1.67;;;;;;;19.95;56.56;101999.34;4900425;29;20040;-76
2023/08/10 11:28:34;;;;;;;5.88;1.65;;;;;;;20.10;55.39;101996.31;4904786;29;20058;-77
2023/08/10 11:31:04;;;;;;;7.15;1.50;;;;;;;20.30;54.25;101990.44;4889296;29;20607;-78